Time;durP1;ratioP1;P1;durP2;ratioP2;P2;SDS_P1;SDS_P2;PMS_P1;PMS_P2;Temp;Humidity;BMP_temperature;BMP_pressure;BME280_temperature;BME280_humidity;BME280_pressure;Samples;Min_cycle;Max_cycle;Signal;HPM_P1;HPM_P2
2022/02/08 00:01:14;;;;;;;15.35;7.67;;;;;;;;;;1645836;85;21111;-72
2022/02/08 00:03:40;;;;;;;17.95;9.85;;;;;;;;;;1649732;86;21081;-72
2022/02/08 00:08:39;;;;;;;13.40;7.53;;;;;;;;;;1657995;85;21544;-71
2022/02/08 00:11:05;;;;;;;10.82;6.83;;;;;;;;;;1658819;85;21025;-70
2022/02/08 00:13:31;;;;;;;12.13;7.03;;;;;;;;;;1658232;85;22194;-70
2022/02/08 00:15:57;;;;;;;13.40;6.22;;;;;;;;;;1641200;87;21017;-71
2022/02/08 00:18:23;;;;;;;10.32;5.83;;;;;;;;;;1645333;86;22077;-72
2022/02/08 00:20:51;;;;;;;9.85;5.87;;;;;;;;;;1692768;85;21158;-71
2022/02/08 00:23:17;;;;;;;6.37;4.22;;;;;;;;;;1678807;85;21016;-71
2022/02/08 00:25:43;;;;;;;10.85;5.25;;;;;;;;;;1646781;85;21018;-71
2022/02/08 00:28:10;;;;;;;7.00;4.30;;;;;;;;;;1661052;85;21128;-71
2022/02/08 00:30:36;;;;;;;8.75;4.87;;;;;;;;;;1634129;86;21104;-71
2022/02/08 00:35:34;;;;;;;6.30;3.80;;;;;;;;;;1793638;79;22811;-71
2022/02/08 00:38:00;;;;;;;8.85;5.03;;;;;;;;;;1756119;81;21000;-72
2022/02/08 00:40:27;;;;;;;7.62;3.72;;;;;;;;;;1753681;81;21064;-71
2022/02/08 00:42:53;;;;;;;7.70;4.25;;;;;;;;;;1725554;83;20976;-71
2022/02/08 00:48:04;;;;;;;6.45;3.98;;;;;;;;;;1725092;83;21063;-71
2022/02/08 00:50:21;;;;;;;7.85;5.12;;;;;;;;;;1721824;83;21531;-71
2022/02/08 00:52:47;;;;;;;9.15;4.50;;;;;;;;;;1718396;83;21047;-70
2022/02/08 00:55:14;;;;;;;6.37;3.65;;;;;;;;;;1702007;84;21021;-70
2022/02/08 00:57:41;;;;;;;7.53;3.72;;;;;;;;;;1683267;83;21718;-71
2022/02/08 01:00:08;;;;;;;5.87;3.30;;;;;;;;;;1670826;84;21088;-71
2022/02/08 01:02:35;;;;;;;8.00;3.83;;;;;;;;;;1671796;84;21092;-71
2022/02/08 01:05:04;;;;;;;6.45;3.77;;;;;;;;;;1655595;84;21026;-71
2022/02/08 01:07:29;;;;;;;4.97;3.72;;;;;;;;;;1655718;86;21636;-71
2022/02/08 01:10:00;;;;;;;4.58;2.75;;;;;;;;;;1672374;84;21076;-71
2022/02/08 01:12:29;;;;;;;4.35;2.83;;;;;;;;;;1673500;84;22464;-71
2022/02/08 01:14:55;;;;;;;7.65;3.22;;;;;;;;;;1674425;84;21576;-71
2022/02/08 01:17:22;;;;;;;7.30;3.35;;;;;;;;;;1672760;84;21624;-71
2022/02/08 01:19:56;;;;;;;4.25;2.50;;;;;;;;;;1673105;84;21534;-72
2022/02/08 01:22:19;;;;;;;6.08;2.92;;;;;;;;;;1672768;85;20989;-72
2022/02/08 01:24:46;;;;;;;5.17;3.52;;;;;;;;;;1673474;84;21044;-72
2022/02/08 01:27:14;;;;;;;5.95;2.83;;;;;;;;;;1673647;85;21108;-72
2022/02/08 01:37:56;;;;;;;5.03;2.85;;;;;;;;;;1666581;84;21022;-70
2022/02/08 01:48:17;;;;;;;6.60;2.60;;;;;;;;;;1643305;85;21411;-71
2022/02/08 01:50:41;;;;;;;3.02;2.40;;;;;;;;;;1671769;84;21085;-71
2022/02/08 01:53:07;;;;;;;3.27;2.33;;;;;;;;;;1662138;85;21049;-71
2022/02/08 01:55:35;;;;;;;6.78;2.67;;;;;;;;;;1668737;84;21030;-71
2022/02/08 01:58:02;;;;;;;3.65;2.15;;;;;;;;;;1665016;84;21096;-70
2022/02/08 02:03:17;;;;;;;4.30;2.50;;;;;;;;;;1713897;79;74312;-71
2022/02/08 02:05:43;;;;;;;4.40;2.37;;;;;;;;;;1711921;82;21519;-71
2022/02/08 02:08:09;;;;;;;4.78;2.58;;;;;;;;;;1712117;82;21045;-71
2022/02/08 02:10:37;;;;;;;3.22;2.20;;;;;;;;;;1701435;83;21026;-70
2022/02/08 02:13:09;;;;;;;5.42;2.72;;;;;;;;;;1681974;83;21107;-71
2022/02/08 02:15:35;;;;;;;3.98;2.35;;;;;;;;;;1706695;82;21057;-70
2022/02/08 02:18:01;;;;;;;4.65;2.47;;;;;;;;;;1712988;82;20981;-71
2022/02/08 02:20:32;;;;;;;4.25;2.42;;;;;;;;;;1710947;82;21095;-70
2022/02/08 02:22:58;;;;;;;3.58;2.47;;;;;;;;;;1713466;82;20992;-71
2022/02/08 02:25:24;;;;;;;3.00;2.17;;;;;;;;;;1711349;82;21111;-71
2022/02/08 02:27:53;;;;;;;3.90;2.70;;;;;;;;;;1712398;82;21001;-71
2022/02/08 02:30:18;;;;;;;4.55;2.90;;;;;;;;;;1713290;82;21559;-72
2022/02/08 02:32:45;;;;;;;5.22;2.42;;;;;;;;;;1715201;82;21014;-71
2022/02/08 02:35:11;;;;;;;6.70;2.77;;;;;;;;;;1712182;82;21544;-71
2022/02/08 02:37:37;;;;;;;5.05;2.67;;;;;;;;;;1713593;82;21085;-71
2022/02/08 02:40:05;;;;;;;4.35;3.12;;;;;;;;;;1689771;82;21340;-72
2022/02/08 02:42:33;;;;;;;4.70;3.30;;;;;;;;;;1715957;82;21094;-70
2022/02/08 02:45:01;;;;;;;6.30;2.90;;;;;;;;;;1690783;82;21150;-72
2022/02/08 02:47:27;;;;;;;7.03;3.60;;;;;;;;;;1705728;82;21013;-70
2022/02/08 02:49:53;;;;;;;4.75;2.67;;;;;;;;;;1665319;84;21571;-71
2022/02/08 02:52:19;;;;;;;5.58;3.27;;;;;;;;;;1713209;82;21002;-70
2022/02/08 02:54:46;;;;;;;5.80;2.67;;;;;;;;;;1714483;82;21001;-71
2022/02/08 02:57:14;;;;;;;5.85;3.35;;;;;;;;;;1731278;80;21325;-72
2022/02/08 02:59:42;;;;;;;3.25;2.30;;;;;;;;;;1725449;80;20977;-72
2022/02/08 03:20:53;;;;;;;6.62;3.33;;;;;;;;;;1698065;82;21019;-71
2022/02/08 03:23:19;;;;;;;6.03;2.65;;;;;;;;;;1697661;82;20989;-71
2022/02/08 03:25:47;;;;;;;4.72;3.02;;;;;;;;;;1696070;82;21061;-71
2022/02/08 03:28:14;;;;;;;5.15;3.33;;;;;;;;;;1697606;82;21020;-71
2022/02/08 03:30:41;;;;;;;5.87;3.08;;;;;;;;;;1690770;82;21583;-71
2022/02/08 03:33:09;;;;;;;6.40;3.40;;;;;;;;;;1693504;82;21048;-71
2022/02/08 03:35:37;;;;;;;6.35;3.55;;;;;;;;;;1693287;82;21068;-71
2022/02/08 03:38:06;;;;;;;5.80;3.30;;;;;;;;;;1698203;82;21060;-71
2022/02/08 03:45:53;;;;;;;5.25;2.77;;;;;;;;;;1696804;82;22067;-70
2022/02/08 03:48:22;;;;;;;5.33;3.67;;;;;;;;;;1696630;82;21371;-71
2022/02/08 03:50:53;;;;;;;5.90;3.27;;;;;;;;;;1697810;82;21524;-71
2022/02/08 03:53:16;;;;;;;5.45;3.40;;;;;;;;;;1695885;82;21028;-72
2022/02/08 03:55:42;;;;;;;5.20;2.92;;;;;;;;;;1698316;82;21047;-72
2022/02/08 03:58:09;;;;;;;3.85;2.47;;;;;;;;;;1699680;82;21550;-71
2022/02/08 04:00:46;;;;;;;4.25;2.70;;;;;;;;;;1699135;82;21789;-72
2022/02/08 04:03:03;;;;;;;4.15;2.70;;;;;;;;;;1695385;82;21086;-71
2022/02/08 04:05:35;;;;;;;4.95;2.70;;;;;;;;;;1696124;82;21040;-72
2022/02/08 04:08:01;;;;;;;6.55;3.35;;;;;;;;;;1700712;82;21389;-72
2022/02/08 04:10:28;;;;;;;4.70;2.67;;;;;;;;;;1696457;82;21064;-71
2022/02/08 04:15:40;;;;;;;5.58;3.05;;;;;;;;;;1698626;82;20993;-71
2022/02/08 04:39:36;;;;;;;4.20;2.45;;;;;;;;;;1700498;82;21068;-72
2022/02/08 04:41:49;;;;;;;3.50;2.35;;;;;;;;;;1688769;83;21306;-70
2022/02/08 04:44:23;;;;;;;4.15;2.30;;;;;;;;;;1698261;82;22205;-70
2022/02/08 04:46:53;;;;;;;4.37;2.80;;;;;;;;;;1693661;82;21133;-71
2022/02/08 04:49:13;;;;;;;5.80;2.70;;;;;;;;;;1694217;82;21049;-70
2022/02/08 04:51:45;;;;;;;5.12;2.45;;;;;;;;;;1691311;82;21053;-69
2022/02/08 04:54:17;;;;;;;3.50;2.40;;;;;;;;;;1696881;82;21252;-69
2022/02/08 04:57:00;;;;;;;5.33;2.80;;;;;;;;;;1689972;82;21036;-70
2022/02/08 04:59:37;;;;;;;4.72;2.30;;;;;;;;;;1689045;82;21051;-70
2022/02/08 05:44:54;;;;;;;5.28;2.83;;;;;;;;;;1635683;87;21064;-71
2022/02/08 05:47:17;;;;;;;3.65;2.55;;;;;;;;;;1659466;86;21564;-70
2022/02/08 05:49:50;;;;;;;4.67;2.72;;;;;;;;;;1659975;86;21042;-71
2022/02/08 05:54:41;;;;;;;4.35;2.33;;;;;;;;;;1668577;84;21035;-71
2022/02/08 05:57:10;;;;;;;5.30;2.50;;;;;;;;;;1629407;86;21005;-71
2022/02/08 05:59:36;;;;;;;4.30;2.47;;;;;;;;;;1667501;84;21058;-72
2022/02/08 06:02:02;;;;;;;3.80;2.60;;;;;;;;;;1648549;84;21598;-71
2022/02/08 06:04:38;;;;;;;4.30;2.27;;;;;;;;;;1630900;86;21647;-72
2022/02/08 06:07:05;;;;;;;5.20;2.77;;;;;;;;;;1634859;88;21116;-71
2022/02/08 06:09:33;;;;;;;4.08;2.77;;;;;;;;;;1634982;88;21036;-71
2022/02/08 06:12:00;;;;;;;5.17;2.77;;;;;;;;;;1672703;84;21063;-72
2022/02/08 06:14:28;;;;;;;6.05;2.58;;;;;;;;;;1690145;85;21116;-71
2022/02/08 06:16:54;;;;;;;4.95;3.00;;;;;;;;;;1694480;84;21025;-71
2022/02/08 06:19:20;;;;;;;7.20;3.00;;;;;;;;;;1678908;84;21032;-70
2022/02/08 06:21:46;;;;;;;4.58;2.60;;;;;;;;;;1683255;85;21064;-71
2022/02/08 06:24:13;;;;;;;4.33;2.90;;;;;;;;;;1699502;84;21110;-71
2022/02/08 06:26:40;;;;;;;6.67;3.33;;;;;;;;;;1710716;83;21118;-71
2022/02/08 06:29:13;;;;;;;6.37;2.45;;;;;;;;;;1710975;84;21043;-70
2022/02/08 06:31:33;;;;;;;5.42;3.00;;;;;;;;;;1690161;84;21024;-71
2022/02/08 06:33:59;;;;;;;6.30;3.22;;;;;;;;;;1687851;84;21026;-70
2022/02/08 06:36:25;;;;;;;6.28;3.17;;;;;;;;;;1684314;83;20981;-71
2022/02/08 06:38:51;;;;;;;6.05;3.10;;;;;;;;;;1691700;83;20958;-71
2022/02/08 06:41:19;;;;;;;4.92;2.75;;;;;;;;;;1676827;85;21109;-70
2022/02/08 06:43:46;;;;;;;5.03;2.67;;;;;;;;;;1699594;84;21059;-70
2022/02/08 06:46:12;;;;;;;4.10;2.52;;;;;;;;;;1688910;84;21045;-70
2022/02/08 06:48:39;;;;;;;4.08;2.52;;;;;;;;;;1677634;84;21082;-71
2022/02/08 06:51:05;;;;;;;6.05;3.20;;;;;;;;;;1679107;85;21090;-71
2022/02/08 06:53:31;;;;;;;6.25;3.10;;;;;;;;;;1676844;85;21021;-70
2022/02/08 06:55:58;;;;;;;3.98;2.40;;;;;;;;;;1675597;84;21036;-68
2022/02/08 06:58:30;;;;;;;6.55;3.30;;;;;;;;;;1656299;85;20989;-72
2022/02/08 07:00:59;;;;;;;5.20;3.67;;;;;;;;;;1698986;82;21596;-71
2022/02/08 07:03:21;;;;;;;3.42;2.33;;;;;;;;;;1713602;82;21082;-70
2022/02/08 07:05:47;;;;;;;4.70;2.60;;;;;;;;;;1687371;82;21509;-69
2022/02/08 07:08:15;;;;;;;4.92;2.80;;;;;;;;;;1683578;83;21083;-71
2022/02/08 07:10:44;;;;;;;4.60;2.87;;;;;;;;;;1688313;83;21627;-72
2022/02/08 07:13:10;;;;;;;2.77;2.00;;;;;;;;;;1704312;83;21492;-72
2022/02/08 07:15:36;;;;;;;8.58;3.90;;;;;;;;;;1700003;83;21047;-70
2022/02/08 07:18:02;;;;;;;7.45;3.42;;;;;;;;;;1687603;83;21499;-68
2022/02/08 07:20:31;;;;;;;6.75;3.80;;;;;;;;;;1682564;83;21047;-69
2022/02/08 07:22:56;;;;;;;6.87;2.98;;;;;;;;;;1692983;83;21543;-68
2022/02/08 07:25:22;;;;;;;8.28;4.05;;;;;;;;;;1678282;83;21021;-71
2022/02/08 07:27:48;;;;;;;5.67;3.25;;;;;;;;;;1699136;83;21508;-70
2022/02/08 07:30:14;;;;;;;7.78;3.02;;;;;;;;;;1696416;83;21017;-71
2022/02/08 07:32:43;;;;;;;4.22;3.12;;;;;;;;;;1690038;83;21554;-70
2022/02/08 07:35:42;;;;;;;3.80;2.30;;;;;;;;;;1691819;83;21025;-72
2022/02/08 07:38:10;;;;;;;4.78;2.65;;;;;;;;;;1682681;83;21052;-69
2022/02/08 07:43:03;;;;;;;4.42;2.20;;;;;;;;;;1701026;83;21100;-73
2022/02/08 07:45:43;;;;;;;4.40;2.35;;;;;;;;;;1685465;83;21108;-71
2022/02/08 07:48:09;;;;;;;4.28;2.52;;;;;;;;;;1718961;83;21017;-71
2022/02/08 07:50:40;;;;;;;9.18;3.80;;;;;;;;;;1689425;83;21040;-72
2022/02/08 07:53:08;;;;;;;6.62;3.47;;;;;;;;;;1692558;83;21060;-71
2022/02/08 07:55:33;;;;;;;6.40;3.10;;;;;;;;;;1692836;84;21084;-71
2022/02/08 07:57:59;;;;;;;6.25;3.37;;;;;;;;;;1694534;83;22207;-72
2022/02/08 08:00:25;;;;;;;7.70;3.22;;;;;;;;;;1694223;83;21120;-73
2022/02/08 08:02:53;;;;;;;6.00;2.90;;;;;;;;;;1694555;82;21116;-71
2022/02/08 08:05:18;;;;;;;6.17;2.42;;;;;;;;;;1694713;82;21029;-70
2022/02/08 08:07:46;;;;;;;4.85;3.00;;;;;;;;;;1692113;83;21081;-72
2022/02/08 08:10:19;;;;;;;4.10;2.30;;;;;;;;;;1687661;83;21095;-73
2022/02/08 08:12:46;;;;;;;4.47;2.37;;;;;;;;;;1687864;83;21065;-73
2022/02/08 08:15:23;;;;;;;4.15;2.12;;;;;;;;;;1693342;83;21072;-69
2022/02/08 08:17:53;;;;;;;5.95;2.22;;;;;;;;;;1643842;86;21070;-71
2022/02/08 08:20:06;;;;;;;4.17;2.47;;;;;;;;;;1656602;86;21449;-71
2022/02/08 08:22:34;;;;;;;4.25;2.50;;;;;;;;;;1659744;85;21524;-71
2022/02/08 08:25:02;;;;;;;5.67;2.22;;;;;;;;;;1652346;85;21032;-71
2022/02/08 08:27:28;;;;;;;5.30;2.00;;;;;;;;;;1626890;86;21520;-71
2022/02/08 08:29:54;;;;;;;4.50;2.60;;;;;;;;;;1633041;87;21013;-70
2022/02/08 08:32:20;;;;;;;3.92;2.20;;;;;;;;;;1635476;87;21069;-71
2022/02/08 08:34:46;;;;;;;4.80;2.72;;;;;;;;;;1647569;86;21109;-71
2022/02/08 08:37:12;;;;;;;3.92;2.40;;;;;;;;;;1622292;86;21064;-72
2022/02/08 08:39:45;;;;;;;5.45;3.10;;;;;;;;;;1670943;85;21559;-71
2022/02/08 08:42:21;;;;;;;4.47;2.52;;;;;;;;;;1661761;85;21052;-71
2022/02/08 08:50:12;;;;;;;6.05;2.77;;;;;;;;;;1645425;86;21620;-71
2022/02/08 08:52:41;;;;;;;5.70;2.47;;;;;;;;;;1632763;86;21100;-70
2022/02/08 08:55:00;;;;;;;6.62;3.80;;;;;;;;;;1668032;85;21020;-70
2022/02/08 08:57:27;;;;;;;9.75;3.30;;;;;;;;;;1658534;85;21045;-74
2022/02/08 08:59:55;;;;;;;4.75;2.47;;;;;;;;;;1657791;86;21041;-70
2022/02/08 09:02:20;;;;;;;4.35;2.95;;;;;;;;;;1646393;85;21529;-70
2022/02/08 09:04:48;;;;;;;5.35;2.37;;;;;;;;;;1632753;86;21061;-70
2022/02/08 09:07:15;;;;;;;6.45;3.52;;;;;;;;;;1687175;85;21052;-69
2022/02/08 09:09:44;;;;;;;5.35;3.15;;;;;;;;;;1691511;83;21088;-70
2022/02/08 09:12:24;;;;;;;9.80;4.72;;;;;;;;;;1687315;83;21548;-70
2022/02/08 09:15:00;;;;;;;4.78;2.90;;;;;;;;;;1685398;85;21083;-71
2022/02/08 09:28:21;;;;;;;;;;;;;;;;;;1706213;83;21618;-72
2022/02/08 09:30:42;;;;;;;3.75;2.15;;;;;;;;;;1687569;83;20143;-71
2022/02/08 09:33:05;;;;;;;3.00;2.65;;;;;;;;;;1693576;83;21076;-71
2022/02/08 09:35:32;;;;;;;4.05;2.30;;;;;;;;;;1697465;84;21171;-71
2022/02/08 09:37:58;;;;;;;4.78;3.40;;;;;;;;;;1699626;83;21056;-71
2022/02/08 09:40:24;;;;;;;7.03;2.35;;;;;;;;;;1681077;85;21076;-72
2022/02/08 09:42:52;;;;;;;9.70;4.65;;;;;;;;;;1692882;83;21036;-72
2022/02/08 09:45:20;;;;;;;3.30;2.05;;;;;;;;;;1689602;84;21009;-72
2022/02/08 09:47:54;;;;;;;2.52;1.50;;;;;;;;;;1689620;83;21096;-73
2022/02/08 09:50:20;;;;;;;2.42;1.75;;;;;;;;;;1700305;83;20973;-71
2022/02/08 09:52:48;;;;;;;3.37;1.80;;;;;;;;;;1686435;84;21058;-71
2022/02/08 09:55:11;;;;;;;4.03;2.40;;;;;;;;;;1686340;84;21444;-70
2022/02/08 09:57:38;;;;;;;3.50;2.40;;;;;;;;;;1684843;84;21081;-70
2022/02/08 10:00:05;;;;;;;6.75;3.25;;;;;;;;;;1687198;83;21019;-70
2022/02/08 10:02:33;;;;;;;5.92;2.87;;;;;;;;;;1692052;83;21084;-71
2022/02/08 10:04:59;;;;;;;6.50;2.52;;;;;;;;;;1689762;83;22081;-71
2022/02/08 10:07:27;;;;;;;4.83;3.10;;;;;;;;;;1711869;82;21161;-71
2022/02/08 10:09:53;;;;;;;8.13;3.75;;;;;;;;;;1712904;82;21001;-71
2022/02/08 10:12:22;;;;;;;4.83;3.25;;;;;;;;;;1705970;83;21471;-71
2022/02/08 10:18:59;;;;;;;5.35;2.95;;;;;;;;;;1704807;82;21090;-72
2022/02/08 10:22:42;;;;;;;4.05;2.67;;;;;;;;;;1711415;82;21095;-70
2022/02/08 10:25:09;;;;;;;4.20;2.30;;;;;;;;;;1713852;82;21456;-71
2022/02/08 10:27:39;;;;;;;4.87;2.25;;;;;;;;;;1700411;83;21044;-68
2022/02/08 10:38:14;;;;;;;4.53;2.47;;;;;;;;;;1688139;83;21563;-69
2022/02/08 10:40:40;;;;;;;5.35;2.47;;;;;;;;;;1684561;84;21005;-70
2022/02/08 10:43:11;;;;;;;10.68;3.52;;;;;;;;;;1653250;84;21020;-70
2022/02/08 10:45:37;;;;;;;4.92;2.15;;;;;;;;;;1678379;85;21021;-70
2022/02/08 10:48:04;;;;;;;3.87;2.40;;;;;;;;;;1685338;84;20980;-70
2022/02/08 10:50:35;;;;;;;4.67;2.12;;;;;;;;;;1678242;85;21560;-71
2022/02/08 10:53:03;;;;;;;4.15;2.15;;;;;;;;;;1668680;85;21092;-71
2022/02/08 10:55:45;;;;;;;1.80;1.65;;;;;;;;;;1700465;83;21048;-72
2022/02/08 11:00:47;;;;;;;3.15;1.98;;;;;;;;;;1698376;82;21036;-68
2022/02/08 11:03:10;;;;;;;3.67;1.90;;;;;;;;;;1705704;83;21559;-69
2022/02/08 11:13:32;;;;;;;2.05;1.55;;;;;;;;;;1696156;82;21025;-70
2022/02/08 11:16:03;;;;;;;3.95;2.40;;;;;;;;;;1691082;83;21123;-71
2022/02/08 11:26:29;;;;;;;3.80;1.80;;;;;;;;;;1703081;82;21013;-69
2022/02/08 11:28:54;;;;;;;2.77;2.05;;;;;;;;;;1707741;82;21085;-70
2022/02/08 11:31:32;;;;;;;3.40;1.90;;;;;;;;;;1711714;82;21060;-70
2022/02/08 11:39:48;;;;;;;3.62;2.22;;;;;;;;;;1705682;83;21508;-69
2022/02/08 11:44:56;;;;;;;4.28;2.08;;;;;;;;;;1691736;83;21045;-71
2022/02/08 11:47:22;;;;;;;3.83;1.82;;;;;;;;;;1700458;82;21041;-69
2022/02/08 12:07:39;;;;;;;4.65;1.60;;;;;;;;;;1671270;83;22127;-70
2022/02/08 12:10:15;;;;;;;4.17;2.22;;;;;;;;;;1716771;83;21040;-69
2022/02/08 12:32:11;;;;;;;3.25;2.17;;;;;;;;;;1666263;85;21048;-69
2022/02/08 12:34:48;;;;;;;4.15;2.12;;;;;;;;;;1666208;85;21085;-69
2022/02/08 12:48:28;;;;;;;6.08;3.20;;;;;;;;;;1663116;85;21033;-69
2022/02/08 13:03:40;;;;;;;5.62;2.40;;;;;;;;;;1753330;81;21054;-69
2022/02/08 14:03:36;;;;;;;;;;;;;;;;;;1736305;82;21536;-72
2022/02/08 14:16:16;;;;;;;3.72;2.35;;;;;;;;;;1724298;82;21057;-71
2022/02/08 14:19:02;;;;;;;3.90;2.17;;;;;;;;;;1746727;82;21108;-72
2022/02/08 14:21:17;;;;;;;3.42;2.25;;;;;;;;;;1748489;81;21056;-71
2022/02/08 14:23:54;;;;;;;3.70;2.17;;;;;;;;;;1732320;82;21025;-71
2022/02/08 15:09:24;;;;;;;3.85;2.05;;;;;;;;;;1718364;83;21043;-69
2022/02/08 15:12:00;;;;;;;4.30;2.12;;;;;;;;;;1737430;82;21048;-67
2022/02/08 15:14:15;;;;;;;2.77;1.80;;;;;;;;;;1725738;81;21013;-70
2022/02/08 15:16:42;;;;;;;5.60;2.80;;;;;;;;;;1682105;85;21029;-70
2022/02/08 15:19:08;;;;;;;4.72;2.40;;;;;;;;;;1699845;84;21552;-72
2022/02/08 15:21:36;;;;;;;3.95;2.05;;;;;;;;;;1705279;84;21087;-71
2022/02/08 15:24:02;;;;;;;3.90;2.20;;;;;;;;;;1735601;82;21021;-70
2022/02/08 15:26:28;;;;;;;4.83;2.15;;;;;;;;;;1727735;82;21575;-70
2022/02/08 15:28:55;;;;;;;4.28;2.20;;;;;;;;;;1729668;82;21040;-70
2022/02/08 15:31:23;;;;;;;4.47;2.58;;;;;;;;;;1723448;83;21084;-72
2022/02/08 15:33:50;;;;;;;5.40;2.60;;;;;;;;;;1724718;82;21032;-72
2022/02/08 15:36:17;;;;;;;5.37;2.75;;;;;;;;;;1749555;82;21025;-73
2022/02/08 15:38:47;;;;;;;5.08;2.72;;;;;;;;;;1753503;82;21480;-71
2022/02/08 15:41:13;;;;;;;4.12;2.30;;;;;;;;;;1749914;81;20989;-71
2022/02/08 15:43:39;;;;;;;3.92;2.67;;;;;;;;;;1686505;85;21009;-71
2022/02/08 15:46:25;;;;;;;4.08;2.45;;;;;;;;;;1687726;84;21602;-71
2022/02/08 15:48:49;;;;;;;3.83;2.30;;;;;;;;;;1707950;84;21568;-72
2022/02/08 15:51:19;;;;;;;4.42;2.25;;;;;;;;;;1778204;80;21060;-70
2022/02/08 15:53:58;;;;;;;5.62;2.50;;;;;;;;;;1736496;82;21048;-70
2022/02/08 16:09:33;;;;;;;3.72;2.35;;;;;;;;;;1739016;82;21668;-71
2022/02/08 16:14:38;;;;;;;3.80;2.20;;;;;;;;;;1664251;86;21565;-67
2022/02/08 16:46:18;;;;;;;;;;;;;;;;;;1726648;82;21043;-68
2022/02/08 16:54:21;;;;;;;5.75;3.15;;;;;;;;;;1726209;82;20975;-68
2022/02/08 16:57:40;;;;;;;4.75;2.50;;;;;;;;;;1728321;82;21026;-68
2022/02/08 16:59:12;;;;;;;6.75;3.17;;;;;;;;;;1715626;81;21440;-71
2022/02/08 17:01:39;;;;;;;5.97;2.98;;;;;;;;;;1730800;81;21064;-71
2022/02/08 17:04:08;;;;;;;15.05;7.50;;;;;;;;;;1724175;82;21052;-71
2022/02/08 17:06:34;;;;;;;9.35;4.83;;;;;;;;;;1718201;82;21029;-70
2022/02/08 17:09:06;;;;;;;11.40;4.62;;;;;;;;;;1741614;81;20982;-71
2022/02/08 17:12:09;;;;;;;11.95;5.80;;;;;;;;;;1725950;82;21003;-71
2022/02/08 17:16:57;;;;;;;9.65;4.92;;;;;;;;;;1736340;81;20969;-70
2022/02/08 17:19:55;;;;;;;9.75;4.60;;;;;;;;;;1740441;81;21045;-70
2022/02/08 17:44:59;;;;;;;11.55;5.28;;;;;;;;;;1734158;82;20989;-71
2022/02/08 17:46:06;;;;;;;17.92;7.05;;;;;;;;;;1738142;81;21009;-73
2022/02/08 17:48:25;;;;;;;23.98;11.63;;;;;;;;;;1728358;82;21018;-73
2022/02/08 17:50:52;;;;;;;32.17;13.72;;;;;;;;;;1737755;81;21029;-73
2022/02/08 17:53:18;;;;;;;20.35;10.68;;;;;;;;;;1719044;82;21014;-71
2022/02/08 17:55:45;;;;;;;17.35;8.25;;;;;;;;;;1737661;82;21599;-71
2022/02/08 17:58:12;;;;;;;11.43;6.00;;;;;;;;;;1745873;81;20999;-72
2022/02/08 18:00:38;;;;;;;11.88;5.75;;;;;;;;;;1728841;82;21088;-72
2022/02/08 18:03:04;;;;;;;15.13;7.25;;;;;;;;;;1716594;83;21567;-72
2022/02/08 18:05:31;;;;;;;15.18;6.85;;;;;;;;;;1714241;82;21547;-72
2022/02/08 18:07:57;;;;;;;19.73;9.08;;;;;;;;;;1733601;80;21005;-72
2022/02/08 18:10:25;;;;;;;12.53;6.17;;;;;;;;;;1735366;82;20985;-72
2022/02/08 18:12:53;;;;;;;13.75;8.18;;;;;;;;;;1743248;80;21008;-72
2022/02/08 18:15:19;;;;;;;15.32;6.30;;;;;;;;;;1746272;81;21581;-70
2022/02/08 18:17:52;;;;;;;14.10;6.08;;;;;;;;;;1743248;82;21552;-72
2022/02/08 18:55:55;;;;;;;11.85;6.42;;;;;;;;;;1734744;81;21078;-69
2022/02/08 19:14:41;;;;;;;9.63;5.30;;;;;;;;;;1711610;82;21092;-71
2022/02/08 19:19:43;;;;;;;17.05;6.97;;;;;;;;;;1724856;82;21031;-70
2022/02/08 19:22:02;;;;;;;19.42;7.85;;;;;;;;;;1738380;82;21090;-70
2022/02/08 19:24:28;;;;;;;21.60;8.70;;;;;;;;;;1725508;81;21584;-70
2022/02/08 19:27:01;;;;;;;18.40;7.50;;;;;;;;;;1717440;82;21092;-70
2022/02/08 19:29:23;;;;;;;12.13;5.10;;;;;;;;;;1721003;82;21001;-70
2022/02/08 19:31:49;;;;;;;9.75;4.90;;;;;;;;;;1711118;82;21544;-71
2022/02/08 19:34:15;;;;;;;10.93;4.30;;;;;;;;;;1739382;82;21045;-71
2022/02/08 19:36:44;;;;;;;8.98;4.12;;;;;;;;;;1728300;82;21010;-71
2022/02/08 19:39:09;;;;;;;7.62;3.98;;;;;;;;;;1724524;81;21026;-71
2022/02/08 19:41:36;;;;;;;10.03;5.20;;;;;;;;;;1736126;81;21037;-71
2022/02/08 19:44:02;;;;;;;10.70;4.20;;;;;;;;;;1729619;82;21441;-70
2022/02/08 19:46:28;;;;;;;10.98;5.75;;;;;;;;;;1736594;82;21044;-69
2022/02/08 19:48:54;;;;;;;12.47;5.10;;;;;;;;;;1739480;82;21021;-69
2022/02/08 19:51:19;;;;;;;10.45;5.33;;;;;;;;;;1722061;82;21033;-70
2022/02/08 19:53:47;;;;;;;19.75;5.95;;;;;;;;;;1739369;82;21041;-72
2022/02/08 19:58:47;;;;;;;18.15;7.42;;;;;;;;;;1744287;82;21056;-69
2022/02/08 20:01:19;;;;;;;17.57;5.95;;;;;;;;;;1743968;81;21072;-70
2022/02/08 20:03:47;;;;;;;15.93;6.67;;;;;;;;;;1744197;82;21060;-69
2022/02/08 20:06:08;;;;;;;15.30;6.33;;;;;;;;;;1740807;81;21008;-70
2022/02/08 20:08:34;;;;;;;11.68;5.15;;;;;;;;;;1739598;81;21622;-71
2022/02/08 20:11:00;;;;;;;15.78;6.80;;;;;;;;;;1739610;81;21028;-70
2022/02/08 20:13:27;;;;;;;17.00;6.92;;;;;;;;;;1726141;82;21019;-69
2022/02/08 20:15:54;;;;;;;16.80;8.25;;;;;;;;;;1731658;81;21003;-70
2022/02/08 20:18:20;;;;;;;15.05;6.97;;;;;;;;;;1730666;82;20996;-69
2022/02/08 20:20:47;;;;;;;10.80;4.75;;;;;;;;;;1736947;82;21051;-69
2022/02/08 20:23:14;;;;;;;13.55;5.60;;;;;;;;;;1743156;82;21041;-69
2022/02/08 20:25:47;;;;;;;13.65;5.60;;;;;;;;;;1743229;82;21472;-70
2022/02/08 20:28:17;;;;;;;16.45;7.40;;;;;;;;;;1741388;81;21012;-71
2022/02/08 20:30:40;;;;;;;14.93;6.30;;;;;;;;;;1734704;82;21615;-68
2022/02/08 20:33:06;;;;;;;12.55;6.40;;;;;;;;;;1744418;82;21067;-70
2022/02/08 20:35:33;;;;;;;14.47;6.17;;;;;;;;;;1729842;82;21014;-69
2022/02/08 20:37:59;;;;;;;12.10;5.45;;;;;;;;;;1741990;82;20976;-70
2022/02/08 20:40:25;;;;;;;11.80;5.12;;;;;;;;;;1737470;82;21012;-70
2022/02/08 20:42:55;;;;;;;11.30;4.70;;;;;;;;;;1745168;82;21031;-71
2022/02/08 20:45:19;;;;;;;10.60;5.35;;;;;;;;;;1715743;82;21020;-71
2022/02/08 20:47:46;;;;;;;15.70;6.55;;;;;;;;;;1714286;84;21115;-70
2022/02/08 20:50:16;;;;;;;24.00;9.10;;;;;;;;;;1723289;82;21152;-70
2022/02/08 20:52:49;;;;;;;19.98;7.65;;;;;;;;;;1743406;82;21481;-69
2022/02/08 20:55:12;;;;;;;11.65;5.72;;;;;;;;;;1742611;82;21047;-70
2022/02/08 20:57:38;;;;;;;12.75;6.25;;;;;;;;;;1738922;82;21628;-69
2022/02/08 21:00:08;;;;;;;19.98;9.65;;;;;;;;;;1738366;81;21061;-69
2022/02/08 21:02:37;;;;;;;13.38;5.85;;;;;;;;;;1736989;82;21002;-70
2022/02/08 21:07:42;;;;;;;17.52;7.40;;;;;;;;;;1712129;84;21029;-70
2022/02/08 21:10:08;;;;;;;14.75;6.62;;;;;;;;;;1712022;84;21124;-69
2022/02/08 21:13:28;;;;;;;12.53;5.83;;;;;;;;;;1711876;84;21008;-70
2022/02/08 21:15:09;;;;;;;14.03;5.62;;;;;;;;;;1698111;84;21061;-70
2022/02/08 21:17:36;;;;;;;12.33;6.08;;;;;;;;;;1757924;81;20986;-70
2022/02/08 21:20:03;;;;;;;10.50;5.33;;;;;;;;;;1727010;82;20998;-70
2022/02/08 21:22:29;;;;;;;9.58;4.10;;;;;;;;;;1739498;82;21021;-70
2022/02/08 21:24:55;;;;;;;14.35;5.22;;;;;;;;;;1739768;82;21021;-70
2022/02/08 21:27:24;;;;;;;13.72;5.15;;;;;;;;;;1739657;82;21057;-70
2022/02/08 21:30:16;;;;;;;14.23;6.22;;;;;;;;;;1735362;82;21005;-69
2022/02/08 21:43:36;;;;;;;15.95;6.05;;;;;;;;;;1739649;82;20994;-69
2022/02/08 21:51:20;;;;;;;11.25;5.50;;;;;;;;;;1733385;82;21096;-69
2022/02/08 21:53:35;;;;;;;15.88;5.65;;;;;;;;;;1737691;82;20998;-68
2022/02/08 21:56:01;;;;;;;13.90;5.55;;;;;;;;;;1723547;82;21041;-69
2022/02/08 21:58:29;;;;;;;13.15;6.12;;;;;;;;;;1747488;82;21006;-69
2022/02/08 22:00:56;;;;;;;12.78;5.92;;;;;;;;;;1733323;82;21028;-69
2022/02/08 22:03:23;;;;;;;12.13;5.55;;;;;;;;;;1718345;83;21036;-69
2022/02/08 22:05:49;;;;;;;10.90;4.65;;;;;;;;;;1722802;82;21072;-69
2022/02/08 22:08:23;;;;;;;9.53;5.20;;;;;;;;;;1744160;82;21001;-68
2022/02/08 22:18:53;;;;;;;12.58;6.70;;;;;;;;;;1724321;82;21040;-68
2022/02/08 22:23:59;;;;;;;11.22;4.97;;;;;;;;;;1722171;82;21016;-69
2022/02/08 22:29:53;;;;;;;8.93;4.22;;;;;;;;;;1747763;82;21068;-69
2022/02/08 22:31:38;;;;;;;9.38;4.80;;;;;;;;;;1716629;82;20997;-69
2022/02/08 22:34:12;;;;;;;10.63;5.35;;;;;;;;;;1721870;82;21001;-69
2022/02/08 22:36:39;;;;;;;9.58;4.50;;;;;;;;;;1730061;82;21484;-69
2022/02/08 22:39:21;;;;;;;13.40;5.58;;;;;;;;;;1722070;82;21021;-69
2022/02/08 22:41:46;;;;;;;13.43;6.40;;;;;;;;;;1725134;82;21009;-69
2022/02/08 22:44:18;;;;;;;11.75;6.55;;;;;;;;;;1731801;82;21021;-69
2022/02/08 22:46:36;;;;;;;17.37;7.87;;;;;;;;;;1745946;82;21590;-70
2022/02/08 22:49:02;;;;;;;12.45;5.67;;;;;;;;;;1731263;82;20974;-70
2022/02/08 22:51:28;;;;;;;15.35;7.95;;;;;;;;;;1747870;82;21005;-69
2022/02/08 22:53:54;;;;;;;16.20;6.67;;;;;;;;;;1745628;82;21076;-70
2022/02/08 22:56:19;;;;;;;14.03;5.95;;;;;;;;;;1716541;81;21080;-70
2022/02/08 22:58:46;;;;;;;15.43;7.40;;;;;;;;;;1710158;83;21057;-69
2022/02/08 23:01:11;;;;;;;17.15;7.58;;;;;;;;;;1731480;82;21010;-70
2022/02/08 23:03:37;;;;;;;22.70;8.15;;;;;;;;;;1727353;82;21068;-69
2022/02/08 23:06:06;;;;;;;16.40;6.58;;;;;;;;;;1710356;82;21013;-70
2022/02/08 23:08:33;;;;;;;13.13;6.53;;;;;;;;;;1722778;82;21025;-70
2022/02/08 23:11:15;;;;;;;16.50;6.72;;;;;;;;;;1728952;82;21021;-70
2022/02/08 23:13:46;;;;;;;14.10;6.45;;;;;;;;;;1736439;82;21022;-70
2022/02/08 23:37:43;;;;;;;;;;;;;;;;;;1733060;82;21544;-68
2022/02/08 23:40:09;;;;;;;12.90;4.53;;;;;;;;;;1724533;82;20158;-69